Dewitt Field,Old Town Municipal Airport


Codes: KOLD/OLD
Name: Dewitt Field,Old Town Municipal Airport
City: Old Town
Country: United States
Elevation: 126 ft.

Photos at Dewitt Field,Old Town Municipal Airport


   Photos courtesy of SpottingLog. You can add your own sightings and photos by signing up for a free trial today.



No photos found.

Weather at Dewitt Field,Old Town Municipal Airport


Time (UTC)DescriptionTempratureWindCloud coverageVisibilityPressureHumidity
21-Jun-2024 15:00Broken Clouds22°C7 mph, NE53%10000m1022hPa62%
21-Jun-2024 18:00Broken Clouds25°C4 mph, N54%10000m1021hPa46%
21-Jun-2024 21:00Overcast Clouds27°C2 mph, E100%10000m1019hPa43%
22-Jun-2024 00:00Overcast Clouds20°C7 mph, S99%10000m1020hPa70%
22-Jun-2024 03:00Overcast Clouds16°C2 mph, SE98%10000m1020hPa68%
22-Jun-2024 06:00Overcast Clouds17°C2 mph, S99%10000m1019hPa60%
22-Jun-2024 09:00Overcast Clouds18°C4 mph, S100%10000m1018hPa59%
22-Jun-2024 12:00Light Rain14°C4 mph, S100%10000m1019hPa98%
22-Jun-2024 15:00Light Rain15°C4 mph, SE100%10000m1019hPa95%
22-Jun-2024 18:00Light Rain15°C2 mph, SE100%10000m1018hPa98%
22-Jun-2024 21:00Light Rain15°C2 mph, SE100%10000m1017hPa99%
23-Jun-2024 00:00Light Rain15°C2 mph, NE100%10000m1016hPa99%
23-Jun-2024 03:00Moderate Rain15°C2 mph, SE100%3630m1015hPa100%
23-Jun-2024 06:00Light Rain15°C2 mph, E100%10000m1014hPa99%
23-Jun-2024 09:00Light Rain15°C2 mph, SE100%10000m1013hPa99%
23-Jun-2024 12:00Light Rain15°C4 mph, SE100%1015m1012hPa99%
23-Jun-2024 15:00Moderate Rain14°C4 mph, SE100%666m1010hPa99%
23-Jun-2024 18:00Moderate Rain14°C4 mph, SE100%469m1007hPa99%
23-Jun-2024 21:00Light Rain15°C4 mph, S100%107m1004hPa99%
24-Jun-2024 00:00Moderate Rain16°C4 mph, S100%134m1003hPa99%
24-Jun-2024 03:00Moderate Rain17°C4 mph, S100%136m1002hPa99%
24-Jun-2024 06:00Moderate Rain18°C2 mph, S100%89m1000hPa100%
24-Jun-2024 09:00Moderate Rain18°C4 mph, SE100%55m999hPa100%
24-Jun-2024 12:00Light Rain19°C2 mph, SE100%94m999hPa99%
24-Jun-2024 15:00Overcast Clouds21°C7 mph, S100%10000m998hPa96%
24-Jun-2024 18:00Light Rain24°C7 mph, SW97%10000m996hPa88%
24-Jun-2024 21:00Light Rain22°C7 mph, NW38%10000m996hPa86%
25-Jun-2024 00:00Light Rain18°C7 mph, N59%10000m997hPa99%
25-Jun-2024 03:00Light Rain16°C4 mph, NW98%10000m998hPa98%
25-Jun-2024 06:00Light Rain15°C4 mph, NW99%9043m997hPa99%
25-Jun-2024 09:00Light Rain15°C9 mph, NW100%10000m998hPa98%
25-Jun-2024 12:00Light Rain15°C9 mph, NW100%10000m1001hPa96%
25-Jun-2024 15:00Light Rain16°C11 mph, N100%10000m1004hPa82%
25-Jun-2024 18:00Overcast Clouds22°C9 mph, N100%10000m1005hPa57%
25-Jun-2024 21:00Clear Sky28°C7 mph, N4%10000m1005hPa40%
26-Jun-2024 00:00Clear Sky21°C4 mph, NW5%10000m1007hPa70%
26-Jun-2024 03:00Clear Sky16°C2 mph, S0%10000m1009hPa79%
26-Jun-2024 06:00Clear Sky15°C4 mph, SW7%10000m1010hPa82%
26-Jun-2024 09:00Scattered Clouds15°C2 mph, S29%10000m1009hPa83%
26-Jun-2024 12:00Broken Clouds21°C7 mph, S62%10000m1009hPa66%